createdAt,value
2022-09-28T00:01:07.542Z,11.27
2022-09-28T00:03:35.637Z,11.27
2022-09-28T00:06:04.883Z,11.26
2022-09-28T00:08:33.200Z,11.28
2022-09-28T00:11:03.520Z,11.26
2022-09-28T00:13:33.029Z,11.27
2022-09-28T00:16:02.997Z,11.30
2022-09-28T00:18:31.097Z,11.28
2022-09-28T00:21:07.288Z,11.29
2022-09-28T00:23:56.879Z,11.28
2022-09-28T00:26:26.143Z,11.27
2022-09-28T00:28:53.946Z,11.26
2022-09-28T00:31:22.197Z,11.29
2022-09-28T00:33:51.624Z,11.33
2022-09-28T00:36:19.436Z,11.35
2022-09-28T00:38:47.467Z,11.41
2022-09-28T00:41:15.954Z,11.42
2022-09-28T00:43:45.084Z,11.37
2022-09-28T00:46:19.414Z,11.36
2022-09-28T00:48:53.577Z,11.37
2022-09-28T00:51:22.137Z,11.37
2022-09-28T00:53:51.829Z,11.33
2022-09-28T00:56:22.711Z,11.34
2022-09-28T00:58:54.684Z,11.33
2022-09-28T01:01:22.908Z,11.32
2022-09-28T01:03:51.518Z,11.28
2022-09-28T01:06:22.095Z,11.33
2022-09-28T01:08:54.120Z,11.35
2022-09-28T01:11:22.729Z,11.34
2022-09-28T01:13:54.538Z,11.32
2022-09-28T01:16:33.923Z,11.34
2022-09-28T01:19:15.410Z,11.38
2022-09-28T01:21:51.666Z,11.37
2022-09-28T01:24:41.569Z,11.26
2022-09-28T01:27:25.178Z,11.26
2022-09-28T01:30:00.566Z,11.22
2022-09-28T01:32:37.648Z,11.16
2022-09-28T01:35:11.438Z,11.09
2022-09-28T01:37:46.906Z,11.04
2022-09-28T01:40:17.292Z,11.06
2022-09-28T01:42:50.299Z,11.07
2022-09-28T01:45:24.099Z,11.10
2022-09-28T01:47:56.894Z,11.08
2022-09-28T01:50:29.951Z,11.03
2022-09-28T01:53:02.337Z,11.00
2022-09-28T01:55:34.932Z,10.95
2022-09-28T01:58:11.475Z,10.91
2022-09-28T02:00:44.239Z,10.90
2022-09-28T02:03:17.649Z,10.89
2022-09-28T02:05:50.310Z,10.89
2022-09-28T02:08:25.514Z,10.85
2022-09-28T02:11:01.001Z,10.86
2022-09-28T02:13:36.789Z,10.86
2022-09-28T02:16:08.510Z,10.89
2022-09-28T02:18:37.419Z,10.87
2022-09-28T02:21:10.227Z,10.84
2022-09-28T02:23:42.889Z,10.80
2022-09-28T02:26:15.273Z,10.82
2022-09-28T02:28:44.766Z,10.82
2022-09-28T02:31:12.893Z,10.81
2022-09-28T02:33:43.489Z,10.82
2022-09-28T02:36:12.222Z,10.81
2022-09-28T02:38:40.573Z,10.84
2022-09-28T02:41:15.048Z,10.85
2022-09-28T02:43:58.491Z,10.73
2022-09-28T02:46:34.055Z,10.75
2022-09-28T02:49:21.781Z,10.75
2022-09-28T02:52:01.537Z,10.72
2022-09-28T02:54:45.903Z,10.72
2022-09-28T02:57:29.562Z,10.73
2022-09-28T03:00:08.263Z,10.79
2022-09-28T03:02:43.115Z,10.82
2022-09-28T03:05:16.776Z,10.87
2022-09-28T03:07:52.366Z,10.86
2022-09-28T03:10:26.929Z,10.84
2022-09-28T03:12:56.653Z,10.82
2022-09-28T03:15:28.798Z,10.76
2022-09-28T03:17:57.876Z,10.76
2022-09-28T03:20:26.861Z,10.71
2022-09-28T03:23:19.786Z,10.70
2022-09-28T03:25:42.911Z,10.61
2022-09-28T03:28:10.972Z,10.63
2022-09-28T03:30:40.477Z,10.64
2022-09-28T03:33:09.692Z,10.66
2022-09-28T03:35:37.702Z,10.72
2022-09-28T03:38:05.852Z,10.71
2022-09-28T03:40:34.014Z,10.72
2022-09-28T03:43:02.315Z,10.78
2022-09-28T03:45:30.458Z,10.78
2022-09-28T03:48:00.333Z,10.70
2022-09-28T03:50:28.516Z,10.75
2022-09-28T03:52:56.536Z,10.78
2022-09-28T03:55:24.616Z,10.81
2022-09-28T03:57:56.496Z,10.81
2022-09-28T04:00:27.125Z,10.84
2022-09-28T04:02:55.218Z,10.87
2022-09-28T04:05:24.592Z,10.87
2022-09-28T04:07:53.984Z,10.88
2022-09-28T04:10:22.169Z,10.87
2022-09-28T04:12:51.011Z,10.84
2022-09-28T04:15:19.102Z,10.91
2022-09-28T04:17:48.481Z,10.96
2022-09-28T04:20:16.461Z,10.99
2022-09-28T04:22:45.871Z,10.99
2022-09-28T04:25:14.118Z,11.01
2022-09-28T04:27:59.334Z,11.00
2022-09-28T04:30:27.299Z,10.99
2022-09-28T04:32:55.313Z,10.95
2022-09-28T04:35:23.359Z,10.91
2022-09-28T04:37:52.733Z,10.90
2022-09-28T04:40:20.766Z,10.86
2022-09-28T04:42:54.705Z,10.80
2022-09-28T04:45:22.876Z,10.82
2022-09-28T04:47:50.795Z,10.83
2022-09-28T04:50:18.792Z,10.83
2022-09-28T04:52:47.244Z,10.79
2022-09-28T04:55:17.777Z,10.78
2022-09-28T04:57:45.893Z,10.77
2022-09-28T05:00:15.164Z,10.73
2022-09-28T05:02:43.244Z,10.72
2022-09-28T05:05:11.308Z,10.72
2022-09-28T05:07:39.418Z,10.75
2022-09-28T05:10:07.806Z,10.77
2022-09-28T05:12:37.275Z,10.71
2022-09-28T05:15:06.138Z,10.68
2022-09-28T05:17:34.224Z,10.67
2022-09-28T05:20:03.122Z,10.67
2022-09-28T05:22:31.227Z,10.67
2022-09-28T05:25:00.444Z,10.65
2022-09-28T05:27:28.482Z,10.63
2022-09-28T05:29:57.864Z,10.62
2022-09-28T05:32:25.915Z,10.63
2022-09-28T05:34:55.770Z,10.67
2022-09-28T05:37:24.212Z,10.65
2022-09-28T05:39:52.358Z,10.65
2022-09-28T05:42:20.365Z,10.68
2022-09-28T05:44:49.926Z,10.70
2022-09-28T05:47:19.376Z,10.73
2022-09-28T05:49:47.420Z,10.71
2022-09-28T05:52:16.618Z,10.68
2022-09-28T05:54:44.691Z,10.67
2022-09-28T05:57:13.279Z,10.71
2022-09-28T05:59:41.539Z,10.73
2022-09-28T06:02:12.160Z,10.72
2022-09-28T06:04:42.894Z,10.66
2022-09-28T06:07:10.933Z,10.69
2022-09-28T06:09:38.908Z,10.72
2022-09-28T06:12:07.052Z,10.74
2022-09-28T06:14:36.473Z,10.71
2022-09-28T06:17:04.486Z,10.75
2022-09-28T06:19:32.564Z,10.80
2022-09-28T06:22:01.969Z,10.81
2022-09-28T06:24:29.974Z,10.80
2022-09-28T06:26:58.120Z,10.83
2022-09-28T06:29:27.132Z,10.83
2022-09-28T06:31:56.135Z,10.82
2022-09-28T06:34:24.901Z,10.76
2022-09-28T06:36:53.070Z,10.71
2022-09-28T06:39:22.490Z,10.72
2022-09-28T06:41:50.647Z,10.72
2022-09-28T06:44:18.893Z,10.74
2022-09-28T06:46:47.280Z,10.75
2022-09-28T06:49:19.333Z,10.81
2022-09-28T06:51:47.987Z,10.87
2022-09-28T06:54:17.060Z,10.91
2022-09-28T06:56:47.233Z,10.93
2022-09-28T06:59:15.374Z,10.93
2022-09-28T07:01:43.617Z,10.92
2022-09-28T07:04:11.831Z,10.94
2022-09-28T07:06:40.029Z,10.92
2022-09-28T07:09:28.587Z,10.95
2022-09-28T07:11:58.052Z,10.91
2022-09-28T07:14:44.392Z,10.95
2022-09-28T07:17:15.067Z,11.00
2022-09-28T07:19:43.274Z,11.05
2022-09-28T07:22:18.405Z,11.07
2022-09-28T07:24:47.593Z,11.05
2022-09-28T07:27:17.042Z,11.06
2022-09-28T07:29:45.143Z,11.08
2022-09-28T07:32:13.236Z,11.10
2022-09-28T07:34:44.675Z,11.11
2022-09-28T07:37:13.541Z,11.12
2022-09-28T07:40:14.099Z,11.05
2022-09-28T07:42:43.574Z,11.01
2022-09-28T07:45:14.326Z,11.04
2022-09-28T07:47:42.456Z,11.06
2022-09-28T07:50:11.376Z,11.03
2022-09-28T07:52:42.744Z,11.04
2022-09-28T07:55:11.092Z,11.08
2022-09-28T07:57:40.078Z,11.11
2022-09-28T08:00:11.028Z,11.13
2022-09-28T08:02:39.285Z,11.16
2022-09-28T08:05:10.365Z,11.19
2022-09-28T08:07:38.830Z,11.21
2022-09-28T08:10:07.702Z,11.22
2022-09-28T08:12:36.105Z,11.25
2022-09-28T08:15:06.986Z,11.27
2022-09-28T08:17:36.624Z,11.25
2022-09-28T08:20:22.551Z,11.26
2022-09-28T08:22:50.934Z,11.25
2022-09-28T08:25:21.493Z,11.23
2022-09-28T08:27:50.083Z,11.22
2022-09-28T08:30:18.964Z,11.24
2022-09-28T08:32:50.140Z,11.25
2022-09-28T08:35:18.622Z,11.28
2022-09-28T08:37:55.527Z,11.33
2022-09-28T08:40:27.594Z,11.37
2022-09-28T08:43:00.912Z,11.43
2022-09-28T08:45:31.668Z,11.50
2022-09-28T08:48:24.865Z,11.58
2022-09-28T08:50:59.338Z,11.70
2022-09-28T08:53:39.831Z,11.71
2022-09-28T08:56:15.976Z,11.75
2022-09-28T08:58:52.206Z,11.75
2022-09-28T09:01:32.760Z,11.81
2022-09-28T09:04:06.045Z,11.87
2022-09-28T09:07:06.327Z,11.94
2022-09-28T09:15:35.463Z,12.40
2022-09-28T09:18:20.364Z,12.50
2022-09-28T09:20:59.167Z,12.59
2022-09-28T09:23:37.508Z,12.68
2022-09-28T09:26:19.037Z,12.71
2022-09-28T09:29:27.480Z,12.78
2022-09-28T09:32:48.630Z,13.13
2022-09-28T09:35:58.453Z,13.39
2022-09-28T09:42:08.894Z,13.84
2022-09-28T09:45:07.547Z,13.97
2022-09-28T09:47:48.544Z,14.10
2022-09-28T09:50:52.566Z,13.99
2022-09-28T09:53:54.045Z,13.96
2022-09-28T09:56:46.964Z,14.20
2022-09-28T09:59:32.607Z,14.25
2022-09-28T10:04:58.733Z,14.32
2022-09-28T10:07:31.661Z,14.34
2022-09-28T10:10:02.847Z,14.30
2022-09-28T10:12:32.441Z,14.22
2022-09-28T10:15:01.832Z,14.22
2022-09-28T10:17:29.614Z,14.42
2022-09-28T10:19:58.016Z,14.56
2022-09-28T10:22:28.604Z,14.73
2022-09-28T10:24:58.816Z,14.85
2022-09-28T10:27:30.745Z,14.99
2022-09-28T10:30:03.140Z,15.13
2022-09-28T10:32:39.571Z,15.41
2022-09-28T10:35:31.507Z,15.68
2022-09-28T10:38:04.565Z,15.81
2022-09-28T10:40:43.451Z,15.72
2022-09-28T10:43:21.713Z,15.76
2022-09-28T10:46:02.040Z,15.66
2022-09-28T10:48:35.785Z,15.68
2022-09-28T10:51:06.628Z,15.61
2022-09-28T10:53:37.237Z,15.61
2022-09-28T10:56:08.175Z,15.55
2022-09-28T10:58:40.603Z,15.53
2022-09-28T11:01:12.387Z,15.51
2022-09-28T11:03:51.448Z,15.43
2022-09-28T11:06:26.449Z,15.39
2022-09-28T11:08:55.828Z,15.37
2022-09-28T11:11:24.724Z,15.40
2022-09-28T11:13:54.861Z,15.49
2022-09-28T11:16:28.684Z,15.55
2022-09-28T11:18:57.105Z,15.59
2022-09-28T11:21:28.173Z,15.62
2022-09-28T11:24:08.117Z,15.60
2022-09-28T11:26:39.413Z,15.59
2022-09-28T11:29:08.610Z,15.60
2022-09-28T11:31:39.990Z,15.52
2022-09-28T11:34:15.982Z,15.50
2022-09-28T11:37:08.072Z,15.53
2022-09-28T11:39:46.499Z,15.54
2022-09-28T11:42:25.587Z,15.54
2022-09-28T11:45:02.056Z,15.60
2022-09-28T11:47:54.276Z,15.54
2022-09-28T11:50:32.450Z,15.68
2022-09-28T11:53:14.588Z,15.70
2022-09-28T11:55:46.625Z,15.79
2022-09-28T11:58:23.343Z,15.85
2022-09-28T12:00:55.672Z,15.92
2022-09-28T12:03:30.642Z,15.90
2022-09-28T12:06:02.099Z,15.83
2022-09-28T12:08:34.418Z,15.81
2022-09-28T12:11:09.786Z,15.82
2022-09-28T12:13:42.371Z,15.83
2022-09-28T12:16:38.824Z,15.79
2022-09-28T12:19:12.815Z,15.82
2022-09-28T12:21:46.726Z,15.88
2022-09-28T12:24:19.595Z,15.86
2022-09-28T12:26:53.408Z,15.87
2022-09-28T12:29:25.700Z,15.84
2022-09-28T12:31:59.575Z,15.85
2022-09-28T12:34:28.909Z,15.91
2022-09-28T12:37:09.580Z,15.92
2022-09-28T12:39:59.650Z,15.93
2022-09-28T12:42:45.299Z,15.94
2022-09-28T12:45:38.789Z,15.96
2022-09-28T12:48:36.496Z,15.99
2022-09-28T12:51:19.757Z,16.04
2022-09-28T12:54:01.748Z,16.09
2022-09-28T12:56:40.390Z,16.08
2022-09-28T12:59:19.948Z,16.15
2022-09-28T13:02:02.954Z,16.26
2022-09-28T13:04:48.709Z,16.34
2022-09-28T13:07:27.595Z,16.42
2022-09-28T13:10:05.991Z,16.44
2022-09-28T13:12:44.941Z,16.38
2022-09-28T13:15:36.867Z,16.31
2022-09-28T13:18:22.850Z,16.22
2022-09-28T13:21:04.053Z,16.24
2022-09-28T13:23:38.765Z,16.26
2022-09-28T13:26:15.894Z,16.31
2022-09-28T13:28:46.949Z,16.32
2022-09-28T13:31:21.365Z,16.28
2022-09-28T13:33:51.088Z,16.34
2022-09-28T13:36:39.310Z,16.33
2022-09-28T13:39:38.507Z,16.47
2022-09-28T13:42:09.931Z,16.43
2022-09-28T13:45:04.111Z,16.28
2022-09-28T13:47:52.147Z,16.18
2022-09-28T13:50:29.715Z,16.11
2022-09-28T13:53:09.294Z,16.07
2022-09-28T13:55:52.618Z,16.01
2022-09-28T13:58:25.809Z,15.94
2022-09-28T14:01:01.137Z,15.91
2022-09-28T14:03:44.208Z,15.83
2022-09-28T14:06:27.051Z,15.82
2022-09-28T14:09:42.288Z,15.77
2022-09-28T14:12:48.751Z,15.78
2022-09-28T14:15:44.998Z,15.76
2022-09-28T14:18:23.547Z,15.84
2022-09-28T14:21:05.393Z,15.88
2022-09-28T14:24:16.450Z,15.85
2022-09-28T14:27:09.973Z,15.90
2022-09-28T14:29:39.817Z,15.96
2022-09-28T14:32:24.560Z,15.96
2022-09-28T14:35:00.774Z,16.00
2022-09-28T14:37:49.625Z,16.02
2022-09-28T14:40:40.468Z,15.91
2022-09-28T14:43:27.835Z,15.78
2022-09-28T14:46:34.985Z,15.62
2022-09-28T14:49:06.602Z,15.63
2022-09-28T14:52:13.486Z,15.48
2022-09-28T14:54:54.192Z,15.51
2022-09-28T14:57:30.088Z,15.49
2022-09-28T15:00:00.605Z,15.41
2022-09-28T15:02:33.069Z,15.30
2022-09-28T15:05:10.911Z,15.20
2022-09-28T15:07:47.920Z,15.08
2022-09-28T15:10:32.541Z,14.96
2022-09-28T15:13:02.361Z,14.95
2022-09-28T15:15:34.547Z,14.90
2022-09-28T15:18:31.082Z,14.65
2022-09-28T15:21:00.439Z,14.70
2022-09-28T15:23:35.552Z,14.62
2022-09-28T15:26:03.823Z,14.57
2022-09-28T15:28:31.574Z,14.56
2022-09-28T15:31:01.565Z,14.58
2022-09-28T15:33:48.521Z,14.51
2022-09-28T15:36:21.507Z,14.49
2022-09-28T15:38:56.586Z,14.49
2022-09-28T15:41:25.608Z,14.48
2022-09-28T15:44:08.437Z,14.49
2022-09-28T15:46:38.679Z,14.53
2022-09-28T15:49:08.345Z,14.45
2022-09-28T15:51:52.212Z,14.32
2022-09-28T15:54:24.818Z,14.33
2022-09-28T15:56:59.525Z,14.38
2022-09-28T15:59:31.886Z,14.39
2022-09-28T16:02:18.412Z,14.24
2022-09-28T16:04:51.543Z,14.32
2022-09-28T16:07:24.409Z,14.27
2022-09-28T16:10:04.771Z,14.19
2022-09-28T16:12:42.480Z,14.05
2022-09-28T16:15:18.297Z,13.98
2022-09-28T16:17:51.606Z,13.96
2022-09-28T16:20:24.485Z,13.87
2022-09-28T16:22:53.948Z,13.84
2022-09-28T16:25:25.106Z,13.81
2022-09-28T16:27:55.170Z,13.76
2022-09-28T16:30:25.358Z,13.71
2022-09-28T16:32:56.464Z,13.61
2022-09-28T16:35:30.877Z,13.54
2022-09-28T16:38:03.457Z,13.46
2022-09-28T16:40:33.095Z,13.40
2022-09-28T16:43:05.180Z,13.35
2022-09-28T16:45:32.942Z,13.35
2022-09-28T16:48:01.632Z,13.33
2022-09-28T16:50:29.682Z,13.32
2022-09-28T16:53:21.258Z,13.33
2022-09-28T16:55:50.724Z,13.25
2022-09-28T16:58:19.069Z,13.21
2022-09-28T17:00:46.921Z,13.19
2022-09-28T17:03:18.332Z,13.13
2022-09-28T17:05:48.720Z,13.13
2022-09-28T17:08:19.681Z,13.19
2022-09-28T17:11:13.895Z,13.16
2022-09-28T17:13:41.416Z,13.15
2022-09-28T17:16:13.494Z,13.17
2022-09-28T17:18:41.770Z,13.19
2022-09-28T17:21:15.792Z,13.21
2022-09-28T17:23:45.936Z,13.27
2022-09-28T17:26:20.223Z,13.27
2022-09-28T17:28:47.992Z,13.31
2022-09-28T17:31:17.394Z,13.33
2022-09-28T17:33:45.191Z,13.37
2022-09-28T17:36:15.931Z,13.40
2022-09-28T17:38:45.977Z,13.41
2022-09-28T17:41:20.244Z,13.41
2022-09-28T17:43:48.773Z,13.41
2022-09-28T17:46:28.268Z,13.39
2022-09-28T17:48:59.494Z,13.41
2022-09-28T17:51:28.580Z,13.39
2022-09-28T17:53:58.100Z,13.39
2022-09-28T17:56:31.133Z,13.36
2022-09-28T17:59:01.562Z,13.33
2022-09-28T18:01:34.381Z,13.29
2022-09-28T18:04:03.626Z,13.26
2022-09-28T18:06:33.487Z,13.22
2022-09-28T18:09:03.895Z,13.18
2022-09-28T18:11:33.205Z,13.12
2022-09-28T18:14:01.210Z,13.07
2022-09-28T18:16:29.858Z,13.01
2022-09-28T18:18:59.169Z,12.97
2022-09-28T18:21:26.963Z,12.94
2022-09-28T18:23:54.776Z,12.95
2022-09-28T18:26:23.909Z,12.97
2022-09-28T18:28:55.113Z,12.95
2022-09-28T18:31:23.013Z,12.95
2022-09-28T18:33:51.048Z,12.91
2022-09-28T18:36:19.086Z,12.88
2022-09-28T18:38:47.019Z,12.86
2022-09-28T18:41:16.567Z,12.85
2022-09-28T18:43:50.037Z,12.81
2022-09-28T18:46:18.950Z,12.79
2022-09-28T18:48:47.774Z,12.76
2022-09-28T18:51:16.030Z,12.74
2022-09-28T18:53:43.915Z,12.72
2022-09-28T18:56:13.302Z,12.69
2022-09-28T18:58:42.675Z,12.67
2022-09-28T19:01:31.370Z,12.62
2022-09-28T19:04:01.398Z,12.59
2022-09-28T19:06:29.843Z,12.56
2022-09-28T19:08:58.779Z,12.54
2022-09-28T19:11:27.147Z,12.53
2022-09-28T19:13:56.329Z,12.50
2022-09-28T19:16:27.457Z,12.47
2022-09-28T19:18:57.195Z,12.40
2022-09-28T19:21:25.414Z,12.32
2022-09-28T19:23:55.276Z,12.28
2022-09-28T19:26:24.743Z,12.24
2022-09-28T19:28:53.958Z,12.20
2022-09-28T19:31:22.649Z,12.12
2022-09-28T19:33:51.813Z,12.04
2022-09-28T19:36:21.925Z,11.95
2022-09-28T19:38:49.662Z,11.90
2022-09-28T19:41:43.040Z,11.87
2022-09-28T19:44:15.830Z,11.82
2022-09-28T19:46:43.951Z,11.79
2022-09-28T19:49:19.358Z,11.75
2022-09-28T19:52:11.949Z,11.72
2022-09-28T19:54:38.156Z,11.70
2022-09-28T19:57:08.764Z,11.69
2022-09-28T19:59:38.150Z,11.69
2022-09-28T20:02:07.705Z,11.68
2022-09-28T20:04:36.996Z,11.68
2022-09-28T20:07:05.650Z,11.65
2022-09-28T20:09:33.769Z,11.66
2022-09-28T20:12:01.859Z,11.64
2022-09-28T20:14:34.017Z,11.61
2022-09-28T20:17:04.289Z,11.58
2022-09-28T20:19:35.053Z,11.54
2022-09-28T20:22:04.723Z,11.53
2022-09-28T20:24:33.526Z,11.51
2022-09-28T20:27:02.499Z,11.49
2022-09-28T20:29:31.625Z,11.50
2022-09-28T20:32:00.432Z,11.52
2022-09-28T20:34:28.375Z,11.51
2022-09-28T20:36:56.403Z,11.53
2022-09-28T20:39:25.617Z,11.54
2022-09-28T20:41:55.536Z,11.54
2022-09-28T20:44:23.467Z,11.56
2022-09-28T20:46:52.059Z,11.57
2022-09-28T20:49:19.886Z,11.57
2022-09-28T20:51:47.821Z,11.57
2022-09-28T20:54:18.563Z,11.56
2022-09-28T20:56:48.303Z,11.56
2022-09-28T20:59:16.365Z,11.56
2022-09-28T21:01:44.674Z,11.56
2022-09-28T21:04:12.889Z,11.58
2022-09-28T21:06:42.712Z,11.57
2022-09-28T21:09:12.423Z,11.58
2022-09-28T21:11:40.359Z,11.57
2022-09-28T21:14:10.785Z,11.58
2022-09-28T21:16:39.223Z,11.57
2022-09-28T21:19:07.060Z,11.56
2022-09-28T21:21:34.869Z,11.54
2022-09-28T21:24:03.379Z,11.51
2022-09-28T21:26:32.259Z,11.48
2022-09-28T21:29:01.793Z,11.46
2022-09-28T21:31:38.594Z,11.41
2022-09-28T21:34:06.713Z,11.39
2022-09-28T21:36:35.125Z,11.34
2022-09-28T21:39:05.008Z,11.30
2022-09-28T21:41:36.041Z,11.25
2022-09-28T21:44:04.040Z,11.23
2022-09-28T21:46:34.698Z,11.21
2022-09-28T21:49:03.021Z,11.16
2022-09-28T21:51:31.479Z,11.12
2022-09-28T21:54:01.845Z,11.10
2022-09-28T21:56:29.586Z,11.05
2022-09-28T21:58:57.479Z,11.01
2022-09-28T22:01:26.665Z,11.00
2022-09-28T22:03:57.689Z,10.96
2022-09-28T22:06:28.305Z,10.93
2022-09-28T22:08:56.719Z,10.91
2022-09-28T22:11:26.206Z,10.88
2022-09-28T22:13:55.382Z,10.84
2022-09-28T22:16:26.580Z,10.80
2022-09-28T22:18:56.115Z,10.78
2022-09-28T22:21:25.575Z,10.75
2022-09-28T22:23:53.498Z,10.70
2022-09-28T22:26:23.626Z,10.67
2022-09-28T22:28:54.168Z,10.64
2022-09-28T22:31:25.097Z,10.60
2022-09-28T22:33:53.569Z,10.59
2022-09-28T22:36:22.712Z,10.57
2022-09-28T22:38:50.755Z,10.53
2022-09-28T22:41:20.955Z,10.51
2022-09-28T22:43:49.155Z,10.48
2022-09-28T22:46:18.834Z,10.46
2022-09-28T22:48:48.333Z,10.44
2022-09-28T22:51:16.092Z,10.40
2022-09-28T22:53:45.412Z,10.39
2022-09-28T22:56:18.504Z,10.36
2022-09-28T22:58:47.218Z,10.33
2022-09-28T23:01:17.267Z,10.31
2022-09-28T23:03:45.572Z,10.28
2022-09-28T23:06:16.053Z,10.25
2022-09-28T23:08:45.857Z,10.23
2022-09-28T23:11:13.666Z,10.19
2022-09-28T23:13:41.349Z,10.17
2022-09-28T23:16:12.264Z,10.13
2022-09-28T23:18:41.990Z,10.09
2022-09-28T23:21:13.287Z,10.07
2022-09-28T23:23:41.047Z,10.02
2022-09-28T23:26:14.399Z,9.96
2022-09-28T23:28:42.586Z,9.90
2022-09-28T23:31:12.282Z,9.89
2022-09-28T23:33:40.179Z,9.88
2022-09-28T23:36:08.879Z,9.88
2022-09-28T23:38:37.261Z,9.85
2022-09-28T23:41:05.525Z,9.84
2022-09-28T23:43:35.033Z,9.82
2022-09-28T23:46:03.079Z,9.80
2022-09-28T23:48:30.947Z,9.77
2022-09-28T23:50:58.995Z,9.75
2022-09-28T23:53:27.295Z,9.72
2022-09-28T23:55:55.750Z,9.69
2022-09-28T23:58:24.033Z,9.68
